Viamao, Brazil
Current Conditions -  °F | °C
As of 10:00 AM on Friday 31 Oct 2014 (Local Time) from SBPA Reporting Station
Clear Clear  
Wind Chill: 75°   Ceiling: Unl
Heat Index: 75°   Visibility: 6mi
Dew Point: 64°   Wind: 12mph
Humidity: 69%   Direction: 110°ESE
Pressure: 29.91"   Gusts: NA
Location:  30.09°S, 50.98°W
Report Text: SBPA 311200Z 11010KT CAVOK 24/18 Q1013
Loading
Personal Weather Stations






























Interactive Weather Map
Tropical Storm Tracking
New forecast layout! Learn more

10-Day Weather Forecast

Advertisements
Track Severe Weather on mobile